Time;durP1;ratioP1;P1;durP2;ratioP2;P2;SDS_P1;SDS_P2;PMS_P1;PMS_P2;Temp;Humidity;BMP_temperature;BMP_pressure;BME280_temperature;BME280_humidity;BME280_pressure;Samples;Min_cycle;Max_cycle;Signal;HPM_P1;HPM_P2
2022/10/06 00:02:06;;;;;;;21.10;11.90;;;;;;;13.45;100.00;100504.66;659766;1277;139751;-85
2022/10/06 00:17:10;;;;;;;21.30;12.00;;;;;;;13.37;100.00;100503.06;658892;1277;139738;-85
2022/10/06 00:32:13;;;;;;;21.20;13.90;;;;;;;13.29;100.00;100501.05;658698;1277;139572;-84
2022/10/06 00:47:18;;;;;;;35.70;19.30;;;;;;;13.21;100.00;100500.73;658483;1277;139746;-85
2022/10/06 01:02:33;;;;;;;62.30;24.60;;;;;;;13.17;100.00;100502.35;658879;1277;140082;-85
2022/10/06 01:17:41;;;;;;;22.90;13.60;;;;;;;13.05;100.00;100500.53;659516;1277;139372;-85
2022/10/06 01:32:45;;;;;;;18.60;12.60;;;;;;;12.98;100.00;100505.06;658515;1277;140046;-85
2022/10/06 01:47:48;;;;;;;20.60;12.60;;;;;;;12.92;100.00;100509.52;658615;1277;139388;-85
2022/10/06 02:02:51;;;;;;;24.70;15.90;;;;;;;12.80;100.00;100513.23;657069;1277;139690;-84
2022/10/06 02:17:54;;;;;;;18.40;12.60;;;;;;;12.74;100.00;100510.61;658110;1277;140255;-86
2022/10/06 02:33:01;;;;;;;23.00;12.80;;;;;;;12.71;100.00;100514.02;658585;1277;139550;-85
2022/10/06 02:48:04;;;;;;;22.00;12.00;;;;;;;12.57;100.00;100521.80;658994;1277;139873;-84
2022/10/06 03:03:08;;;;;;;21.00;12.20;;;;;;;12.51;100.00;100527.31;658843;1277;139752;-85
2022/10/06 03:18:11;;;;;;;22.90;13.70;;;;;;;12.52;100.00;100531.11;659127;1277;140387;-84
2022/10/06 03:33:14;;;;;;;19.00;12.20;;;;;;;12.58;100.00;100533.70;657999;1277;139918;-85
2022/10/06 03:48:18;;;;;;;22.40;13.40;;;;;;;12.53;100.00;100547.64;657278;1277;140103;-85
2022/10/06 04:03:21;;;;;;;22.00;13.10;;;;;;;12.40;100.00;100561.63;658404;1277;139994;-85
2022/10/06 04:18:24;;;;;;;20.80;13.60;;;;;;;12.35;100.00;100578.16;657938;1277;139447;-87
2022/10/06 04:33:31;;;;;;;20.50;12.60;;;;;;;12.32;100.00;100594.41;660811;1277;139958;-85
2022/10/06 04:48:34;;;;;;;25.30;15.30;;;;;;;12.44;100.00;100604.01;660672;1277;140169;-86
2022/10/06 05:03:38;;;;;;;23.60;13.20;;;;;;;12.68;100.00;100611.91;663308;1277;140698;-85
2022/10/06 05:18:42;;;;;;;20.10;12.80;;;;;;;12.81;100.00;100628.80;659300;1277;139947;-85
2022/10/06 05:33:46;;;;;;;23.80;14.70;;;;;;;12.91;100.00;100645.38;659115;1277;140141;-85
2022/10/06 05:48:54;;;;;;;29.00;16.00;;;;;;;13.21;100.00;100650.15;657056;1279;140054;-86
2022/10/06 06:04:02;;;;;;;22.50;13.20;;;;;;;13.60;100.00;100673.30;657165;1277;1199672;-85
2022/10/06 06:19:12;;;;;;;19.10;12.00;;;;;;;13.98;100.00;100702.90;658545;1277;140522;-87
2022/10/06 06:34:17;;;;;;;18.00;13.10;;;;;;;14.31;100.00;100714.36;659756;1277;140450;-87
2022/10/06 06:49:21;;;;;;;18.80;9.70;;;;;;;15.12;100.00;100725.46;656925;1277;139601;-86
2022/10/06 07:04:31;;;;;;;22.40;9.20;;;;;;;16.06;100.00;100757.61;657287;1277;139219;-87
2022/10/06 07:34:53;;;;;;;8.60;6.40;;;;;;;17.34;100.00;100807.14;659454;1277;139353;-84
2022/10/06 07:49:58;;;;;;;9.20;5.60;;;;;;;18.04;100.00;100814.86;659456;1277;139076;-87
2022/10/06 08:05:03;;;;;;;9.90;6.10;;;;;;;17.83;100.00;100809.71;657308;1276;139649;-86
2022/10/06 08:20:09;;;;;;;11.20;8.40;;;;;;;17.70;100.00;100845.33;658183;1277;139452;-88
2022/10/06 08:35:13;;;;;;;9.90;6.10;;;;;;;17.59;100.00;100890.94;659006;1277;139539;-86
2022/10/06 08:50:20;;;;;;;9.20;6.10;;;;;;;18.19;100.00;100904.14;661152;1277;139474;-86
2022/10/06 09:05:28;;;;;;;6.90;5.10;;;;;;;18.59;100.00;100933.42;659426;1277;139084;-86
2022/10/06 09:20:36;;;;;;;6.40;3.60;;;;;;;18.45;100.00;100961.36;659624;1277;139066;-85
2022/10/06 09:36:07;;;;;;;9.80;3.20;;;;;;;19.01;97.51;100965.38;659918;1277;140083;-87
2022/10/06 09:51:16;;;;;;;6.90;3.90;;;;;;;19.69;91.86;100986.63;660925;1277;140077;-86
2022/10/06 10:06:26;;;;;;;5.80;2.90;;;;;;;19.97;89.10;101011.92;659160;1277;138984;-85
2022/10/06 10:21:32;;;;;;;4.40;3.00;;;;;;;20.29;82.93;101045.18;659253;1277;139142;-87
2022/10/06 10:36:49;;;;;;;4.50;2.20;;;;;;;20.90;76.73;101058.66;659333;1277;138983;-86
2022/10/06 10:52:02;;;;;;;3.50;1.90;;;;;;;21.18;71.13;101083.89;658116;1277;139390;-85
2022/10/06 11:07:20;;;;;;;4.70;1.90;;;;;;;21.64;70.77;101085.30;658871;1277;138402;-86
2022/10/06 11:22:40;;;;;;;4.40;1.50;;;;;;;22.21;67.51;101099.61;659531;1277;140091;-85
2022/10/06 11:37:55;;;;;;;22.40;12.80;;;;;;;22.04;64.82;101121.27;661913;1277;138411;-87
2022/10/06 11:52:58;;;;;;;4.90;1.80;;;;;;;22.33;60.79;101133.45;661036;1277;139556;-86
2022/10/06 12:08:02;;;;;;;8.40;1.90;;;;;;;22.76;58.00;101148.15;661551;1277;138085;-85
2022/10/06 12:23:20;;;;;;;7.50;1.60;;;;;;;23.25;57.18;101180.05;661012;1276;138476;-87
2022/10/06 12:38:31;;;;;;;9.20;1.70;;;;;;;22.69;55.90;101203.44;664515;1276;140005;-85
2022/10/06 12:54:10;;;;;;;4.70;1.20;;;;;;;22.23;55.73;101204.46;659230;1276;139587;-88
2022/10/06 13:09:13;;;;;;;7.80;1.60;;;;;;;23.31;54.19;101220.14;658548;1277;139707;-85
2022/10/06 13:24:19;;;;;;;2.70;0.80;;;;;;;24.05;51.47;101232.65;661451;1277;138514;-87
2022/10/06 13:39:25;;;;;;;6.00;1.20;;;;;;;28.85;43.73;101253.49;663443;1277;140725;-87
2022/10/06 13:54:36;;;;;;;4.00;1.10;;;;;;;30.52;40.99;101265.27;661259;1277;139484;-85
2022/10/06 14:09:42;;;;;;;2.60;1.10;;;;;;;28.71;44.02;101279.85;662600;1277;138594;-85
2022/10/06 14:24:50;;;;;;;5.70;1.60;;;;;;;29.46;41.58;101296.16;659391;1277;138974;-85
2022/10/06 14:39:54;;;;;;;6.60;2.50;;;;;;;28.89;43.01;101314.76;657258;1277;138962;-84
2022/10/06 14:54:58;;;;;;;45.50;31.40;;;;;;;25.00;46.11;101330.89;658145;1277;138497;-85
2022/10/06 15:10:04;;;;;;;32.60;20.50;;;;;;;21.89;51.43;101340.51;659339;1277;138596;-86
2022/10/06 15:28:59;;;;;;;104.80;50.10;;;;;;;22.34;52.53;101365.64;661138;1276;138967;-85
2022/10/06 15:40:32;;;;;;;110.60;52.50;;;;;;;24.21;50.70;101380.92;661183;1277;139282;-86
2022/10/06 15:55:37;;;;;;;145.30;80.00;;;;;;;23.84;49.26;101396.20;665963;1277;139014;-86
2022/10/06 16:10:41;;;;;;;95.70;52.10;;;;;;;20.79;52.53;101421.80;658884;1277;139054;-86
2022/10/06 16:25:45;;;;;;;87.10;45.10;;;;;;;18.76;56.43;101445.48;659935;1277;140194;-85
2022/10/06 16:40:55;;;;;;;48.40;30.90;;;;;;;17.85;59.02;101468.00;659943;1276;138910;-84
2022/10/06 16:55:59;;;;;;;40.10;19.30;;;;;;;17.41;60.61;101495.57;663093;1277;138900;-86
2022/10/06 17:11:16;;;;;;;60.00;30.90;;;;;;;16.83;62.43;101522.63;659177;1277;139378;-84
2022/10/06 17:26:23;;;;;;;43.50;19.50;;;;;;;16.06;65.05;101536.14;658299;1277;139053;-85
2022/10/06 17:41:32;;;;;;;28.90;14.50;;;;;;;15.49;66.80;101543.70;658739;1277;138648;-85
2022/10/06 17:56:37;;;;;;;31.40;15.60;;;;;;;15.18;68.43;101558.02;657988;1277;971236;-84
2022/10/06 18:11:43;;;;;;;28.10;13.60;;;;;;;14.77;69.83;101562.77;658769;1277;139420;-83
2022/10/06 18:26:48;;;;;;;28.70;15.30;;;;;;;14.38;71.37;101569.55;661947;1277;140184;-85
2022/10/06 18:42:24;;;;;;;30.10;12.10;;;;;;;14.12;72.42;101589.89;626563;1334;952654;-85
2022/10/06 18:57:28;;;;;;;35.70;16.10;;;;;;;13.81;74.08;101603.58;636194;1297;139026;-85
2022/10/06 19:12:31;;;;;;;26.60;11.60;;;;;;;13.54;74.95;101613.49;637433;1307;139446;-85
2022/10/06 19:27:35;;;;;;;20.70;8.80;;;;;;;13.55;75.54;101635.58;641081;1311;142166;-85
2022/10/06 19:42:47;;;;;;;18.90;7.40;;;;;;;13.36;76.12;101646.30;645390;1311;138630;-84
2022/10/06 19:57:50;;;;;;;25.90;12.40;;;;;;;13.09;77.03;101660.58;636400;1305;138364;-85
2022/10/06 20:12:54;;;;;;;47.80;23.10;;;;;;;12.72;78.43;101670.16;636045;1318;138820;-84
2022/10/06 20:27:57;;;;;;;58.90;26.80;;;;;;;12.42;79.31;101683.09;636519;1310;138658;-86
2022/10/06 20:43:01;;;;;;;61.30;26.90;;;;;;;12.08;79.20;101682.89;636552;1311;139284;-84
2022/10/06 20:58:04;;;;;;;44.50;22.20;;;;;;;11.62;79.55;101706.15;640400;1304;138707;-86
2022/10/06 21:13:08;;;;;;;38.50;19.30;;;;;;;11.30;80.50;101712.54;638950;1302;139803;-87
2022/10/06 21:28:12;;;;;;;35.40;18.40;;;;;;;11.24;82.21;101712.94;637797;1316;138954;-85
2022/10/06 21:43:15;;;;;;;40.60;19.00;;;;;;;10.96;82.17;101713.40;637327;1310;139088;-85
2022/10/06 21:58:18;;;;;;;38.00;18.10;;;;;;;10.58;82.50;101717.81;637604;1316;139707;-85
2022/10/06 22:13:22;;;;;;;26.10;12.60;;;;;;;10.51;84.18;101723.17;637443;1294;138638;-85
2022/10/06 22:28:25;;;;;;;22.00;10.70;;;;;;;10.41;86.02;101717.87;637437;1293;138785;-85
2022/10/06 22:43:29;;;;;;;23.50;13.20;;;;;;;10.24;87.59;101715.27;637456;1316;140481;-85
2022/10/06 22:58:32;;;;;;;22.40;9.80;;;;;;;10.02;89.05;101712.27;637806;1302;139267;-85
2022/10/06 23:13:36;;;;;;;24.30;9.50;;;;;;;9.94;90.18;101714.35;638016;1308;138671;-85
2022/10/06 23:28:39;;;;;;;17.50;8.60;;;;;;;9.83;90.34;101720.59;638010;1310;139185;-85
2022/10/06 23:43:43;;;;;;;23.50;10.80;;;;;;;9.64;90.05;101725.60;638300;1307;138694;-84
2022/10/06 23:58:46;;;;;;;21.20;9.90;;;;;;;9.44;89.09;101726.14;637760;1308;139103;-86
